createdAt,value
2024-05-09T00:01:51.593Z,62.29
2024-05-09T00:04:21.116Z,62.12
2024-05-09T00:06:50.664Z,62.19
2024-05-09T00:09:20.190Z,62.27
2024-05-09T00:11:49.845Z,62.10
2024-05-09T00:14:19.570Z,62.26
2024-05-09T00:16:52.262Z,62.26
2024-05-09T00:19:21.953Z,62.22
2024-05-09T00:21:51.512Z,62.06
2024-05-09T00:24:21.103Z,62.51
2024-05-09T00:26:50.680Z,62.21
2024-05-09T00:29:20.267Z,61.92
2024-05-09T00:31:52.445Z,62.51
2024-05-09T00:34:22.066Z,62.39
2024-05-09T00:36:51.737Z,62.28
2024-05-09T00:39:21.291Z,62.33
2024-05-09T00:41:50.857Z,62.61
2024-05-09T00:44:20.439Z,62.84
2024-05-09T00:46:55.406Z,62.47
2024-05-09T00:49:26.180Z,62.82
2024-05-09T00:51:56.989Z,62.88
2024-05-09T00:54:27.138Z,62.50
2024-05-09T00:56:57.144Z,62.81
2024-05-09T00:59:27.495Z,62.48
2024-05-09T01:02:01.430Z,62.57
2024-05-09T01:04:31.011Z,62.84
2024-05-09T01:07:00.659Z,62.69
2024-05-09T01:09:30.336Z,62.95
2024-05-09T01:11:59.974Z,62.88
2024-05-09T01:14:29.692Z,62.85
2024-05-09T01:17:02.014Z,62.67
2024-05-09T01:19:33.100Z,63.09
2024-05-09T01:22:04.292Z,62.54
2024-05-09T01:24:36.417Z,63.03
2024-05-09T01:27:06.215Z,62.77
2024-05-09T01:29:35.833Z,62.70
2024-05-09T01:32:05.538Z,62.79
2024-05-09T01:34:35.161Z,62.68
2024-05-09T01:37:04.704Z,62.65
2024-05-09T01:39:36.859Z,62.34
2024-05-09T01:42:06.836Z,62.44
2024-05-09T01:44:36.407Z,62.46
2024-05-09T01:47:06.184Z,62.50
2024-05-09T01:49:39.136Z,62.54
2024-05-09T01:52:08.916Z,62.58
2024-05-09T01:54:41.088Z,63.03
2024-05-09T01:57:10.621Z,63.09
2024-05-09T01:59:40.192Z,63.00
2024-05-09T02:02:10.156Z,63.05
2024-05-09T02:04:39.939Z,63.18
2024-05-09T02:07:10.327Z,63.18
2024-05-09T02:09:42.408Z,63.24
2024-05-09T02:12:12.608Z,63.65
2024-05-09T02:14:42.311Z,63.22
2024-05-09T02:17:11.975Z,63.06
2024-05-09T02:19:41.557Z,63.31
2024-05-09T02:22:11.221Z,63.25
2024-05-09T02:24:43.384Z,63.56
2024-05-09T02:27:12.932Z,63.31
2024-05-09T02:29:42.591Z,63.56
2024-05-09T02:32:12.182Z,63.74
2024-05-09T02:34:41.844Z,63.69
2024-05-09T02:37:11.383Z,63.50
2024-05-09T02:39:40.914Z,63.88
2024-05-09T02:42:10.403Z,63.95
2024-05-09T02:44:37.410Z,63.57
2024-05-09T02:47:07.529Z,63.68
2024-05-09T02:49:34.623Z,63.61
2024-05-09T02:52:04.193Z,63.69
2024-05-09T02:54:31.195Z,63.90
2024-05-09T02:57:03.337Z,63.45
2024-05-09T02:59:30.294Z,63.57
2024-05-09T03:01:59.955Z,63.25
2024-05-09T03:04:26.955Z,63.23
2024-05-09T03:06:56.545Z,63.47
2024-05-09T03:09:24.185Z,63.59
2024-05-09T03:11:54.726Z,63.21
2024-05-09T03:14:24.492Z,63.47
2024-05-09T03:16:54.056Z,63.22
2024-05-09T03:19:21.168Z,63.62
2024-05-09T03:21:50.962Z,63.59
2024-05-09T03:24:17.862Z,63.44
2024-05-09T03:26:47.444Z,63.34
2024-05-09T03:29:14.435Z,63.41
2024-05-09T03:31:46.680Z,63.28
2024-05-09T03:34:13.687Z,63.26
2024-05-09T03:36:46.223Z,63.42
2024-05-09T03:39:15.729Z,63.60
2024-05-09T03:41:45.341Z,63.24
2024-05-09T03:44:14.985Z,63.08
2024-05-09T03:46:44.621Z,63.03
2024-05-09T03:49:14.447Z,62.82
2024-05-09T03:51:41.480Z,63.12
2024-05-09T03:54:11.006Z,63.06
2024-05-09T03:56:38.166Z,62.82
2024-05-09T03:59:07.767Z,63.08
2024-05-09T04:01:34.801Z,62.96
2024-05-09T04:04:08.975Z,62.99
2024-05-09T04:06:36.055Z,62.74
2024-05-09T04:09:05.591Z,63.13
2024-05-09T04:11:32.721Z,62.86
2024-05-09T04:14:02.345Z,62.98
2024-05-09T04:16:29.296Z,62.81
2024-05-09T04:18:58.938Z,63.01
2024-05-09T04:21:28.566Z,62.69
2024-05-09T04:23:58.087Z,62.48
2024-05-09T04:26:25.107Z,62.81
2024-05-09T04:28:54.739Z,62.87
2024-05-09T04:31:21.682Z,62.95
2024-05-09T04:33:51.338Z,62.63
2024-05-09T04:36:18.553Z,62.83
2024-05-09T04:38:50.694Z,63.07
2024-05-09T04:41:17.638Z,62.77
2024-05-09T04:43:47.248Z,62.71
2024-05-09T04:46:14.924Z,62.93
2024-05-09T04:48:45.121Z,63.10
2024-05-09T04:51:12.177Z,63.17
2024-05-09T04:53:41.730Z,63.01
2024-05-09T04:56:11.356Z,63.16
2024-05-09T04:58:40.908Z,63.25
2024-05-09T05:01:07.891Z,63.14
2024-05-09T05:03:37.494Z,63.52
2024-05-09T05:06:04.667Z,63.22
2024-05-09T05:08:34.332Z,63.03
2024-05-09T05:11:01.494Z,63.18
2024-05-09T05:13:38.566Z,63.39
2024-05-09T05:16:07.341Z,63.20
2024-05-09T05:18:36.988Z,63.04
2024-05-09T05:21:04.285Z,63.32
2024-05-09T05:23:34.124Z,63.10
2024-05-09T05:26:01.149Z,63.32
2024-05-09T05:28:30.753Z,63.36
2024-05-09T05:31:00.312Z,63.63
2024-05-09T05:33:30.075Z,63.38
2024-05-09T05:35:57.399Z,63.43
2024-05-09T05:38:28.382Z,63.46
2024-05-09T05:40:55.978Z,63.81
2024-05-09T05:43:25.586Z,63.50
2024-05-09T05:45:52.499Z,63.55
2024-05-09T05:48:24.797Z,64.00
2024-05-09T05:50:51.880Z,63.70
2024-05-09T05:53:21.491Z,64.20
2024-05-09T05:55:48.544Z,63.76
2024-05-09T05:58:20.228Z,63.68
2024-05-09T06:00:48.200Z,63.77
2024-05-09T06:03:17.849Z,63.94
2024-05-09T06:05:47.527Z,63.82
2024-05-09T06:08:17.166Z,64.17
2024-05-09T06:10:44.225Z,64.46
2024-05-09T06:13:15.770Z,64.41
2024-05-09T06:15:43.640Z,64.21
2024-05-09T06:18:14.154Z,64.26
2024-05-09T06:20:43.259Z,63.90
2024-05-09T06:23:17.045Z,64.05
2024-05-09T06:25:44.293Z,64.04
2024-05-09T06:28:14.044Z,64.21
2024-05-09T06:30:42.616Z,64.49
2024-05-09T06:33:15.841Z,64.18
2024-05-09T06:35:44.351Z,64.42
2024-05-09T06:38:16.841Z,64.46
2024-05-09T06:40:44.593Z,64.29
2024-05-09T06:43:17.371Z,64.18
2024-05-09T06:45:47.343Z,64.74
2024-05-09T06:48:17.539Z,64.10
2024-05-09T06:50:44.879Z,64.40
2024-05-09T06:53:18.431Z,64.45
2024-05-09T06:55:45.488Z,64.47
2024-05-09T06:58:15.112Z,64.48
2024-05-09T07:00:42.575Z,65.06
2024-05-09T07:03:14.713Z,65.11
2024-05-09T07:05:44.578Z,64.89
2024-05-09T07:08:17.169Z,64.95
2024-05-09T07:10:44.443Z,64.81
2024-05-09T07:13:15.785Z,65.18
2024-05-09T07:15:42.958Z,65.15
2024-05-09T07:18:15.557Z,65.29
2024-05-09T07:20:43.169Z,65.18
2024-05-09T07:23:13.338Z,65.29
2024-05-09T07:25:43.324Z,65.50
2024-05-09T07:28:13.847Z,65.51
2024-05-09T07:30:40.846Z,65.43
2024-05-09T07:33:12.236Z,65.29
2024-05-09T07:35:39.504Z,65.67
2024-05-09T07:38:09.373Z,65.50
2024-05-09T07:40:40.422Z,65.49
2024-05-09T07:43:11.605Z,65.64
2024-05-09T07:45:50.538Z,65.66
2024-05-09T07:52:37.325Z,65.14
2024-05-09T07:53:45.827Z,65.45
2024-05-09T07:56:21.246Z,65.24
2024-05-09T07:58:52.919Z,65.33
2024-05-09T08:01:22.766Z,65.27
2024-05-09T08:03:52.579Z,65.54
2024-05-09T08:06:19.612Z,65.12
2024-05-09T08:08:49.498Z,66.11
2024-05-09T08:11:16.534Z,66.67
2024-05-09T08:13:46.112Z,65.77
2024-05-09T08:16:16.285Z,64.69
2024-05-09T08:18:45.874Z,64.52
2024-05-09T08:21:12.850Z,63.58
2024-05-09T08:23:42.346Z,64.41
2024-05-09T08:26:09.266Z,64.52
2024-05-09T08:28:38.887Z,64.85
2024-05-09T08:31:07.196Z,64.73
2024-05-09T08:33:39.775Z,64.67
2024-05-09T08:36:07.146Z,63.82
2024-05-09T08:38:36.644Z,64.53
2024-05-09T08:41:04.491Z,64.68
2024-05-09T08:43:34.101Z,65.19
2024-05-09T08:46:04.337Z,64.88
2024-05-09T08:48:37.248Z,64.88
2024-05-09T08:51:07.191Z,64.52
2024-05-09T08:53:36.694Z,63.97
2024-05-09T08:56:05.868Z,63.04
2024-05-09T08:58:37.754Z,62.36
2024-05-09T09:01:04.965Z,63.27
2024-05-09T09:03:36.581Z,59.84
2024-05-09T09:06:08.850Z,58.87
2024-05-09T09:08:41.216Z,59.35
2024-05-09T09:11:08.115Z,60.47
2024-05-09T09:13:37.651Z,60.09
2024-05-09T09:16:05.230Z,57.23
2024-05-09T09:18:34.980Z,58.55
2024-05-09T09:21:02.908Z,58.90
2024-05-09T09:23:36.196Z,59.03
2024-05-09T09:26:03.142Z,59.52
2024-05-09T09:28:32.725Z,60.62
2024-05-09T09:31:03.309Z,61.40
2024-05-09T09:33:36.169Z,62.00
2024-05-09T09:36:04.981Z,62.54
2024-05-09T09:38:39.947Z,62.78
2024-05-09T09:41:08.917Z,63.38
2024-05-09T09:43:39.624Z,63.58
2024-05-09T09:46:10.729Z,63.57
2024-05-09T09:48:43.112Z,63.78
2024-05-09T09:51:10.740Z,64.09
2024-05-09T09:53:44.794Z,64.42
2024-05-09T09:56:12.169Z,64.72
2024-05-09T09:58:42.836Z,64.47
2024-05-09T10:01:10.281Z,62.74
2024-05-09T10:03:41.256Z,63.80
2024-05-09T10:06:11.225Z,64.00
2024-05-09T10:08:44.374Z,64.15
2024-05-09T10:11:11.598Z,64.01
2024-05-09T10:13:44.372Z,64.59
2024-05-09T10:16:14.405Z,64.57
2024-05-09T10:18:44.211Z,62.79
2024-05-09T10:21:17.984Z,63.27
2024-05-09T10:23:59.981Z,64.73
2024-05-09T10:26:34.005Z,64.18
2024-05-09T10:29:04.739Z,63.78
2024-05-09T10:31:32.309Z,64.13
2024-05-09T10:34:03.613Z,64.42
2024-05-09T10:36:30.909Z,64.53
2024-05-09T10:39:03.093Z,64.63
2024-05-09T10:41:30.023Z,64.95
2024-05-09T10:43:59.712Z,65.69
2024-05-09T10:46:26.802Z,65.48
2024-05-09T10:48:56.697Z,65.23
2024-05-09T10:51:24.852Z,64.93
2024-05-09T10:53:56.742Z,64.61
2024-05-09T10:56:26.424Z,64.39
2024-05-09T10:58:56.170Z,63.62
2024-05-09T11:01:23.451Z,63.82
2024-05-09T11:03:53.465Z,64.28
2024-05-09T11:06:20.711Z,62.97
2024-05-09T11:08:50.827Z,62.70
2024-05-09T11:11:18.011Z,63.32
2024-05-09T11:13:50.216Z,62.58
2024-05-09T11:16:19.712Z,61.67
2024-05-09T11:18:57.981Z,60.81
2024-05-09T11:21:25.512Z,61.02
2024-05-09T11:23:55.277Z,62.32
2024-05-09T11:26:22.699Z,62.65
2024-05-09T11:28:54.906Z,62.50
2024-05-09T11:31:22.002Z,62.73
2024-05-09T11:33:51.860Z,63.01
2024-05-09T11:36:18.904Z,62.82
2024-05-09T11:38:48.467Z,62.65
2024-05-09T11:41:17.436Z,61.99
2024-05-09T11:43:47.050Z,60.30
2024-05-09T11:46:16.808Z,62.54
2024-05-09T11:48:46.671Z,62.97
2024-05-09T11:51:13.728Z,61.59
2024-05-09T11:53:43.230Z,59.70
2024-05-09T11:56:12.001Z,57.72
2024-05-09T11:58:41.626Z,60.03
2024-05-09T12:01:08.667Z,60.74
2024-05-09T12:03:40.980Z,60.58
2024-05-09T12:06:08.119Z,61.60
2024-05-09T12:08:37.710Z,61.96
2024-05-09T12:11:05.255Z,61.98
2024-05-09T12:13:34.895Z,62.49
2024-05-09T12:16:01.975Z,62.29
2024-05-09T12:18:33.909Z,62.47
2024-05-09T12:21:03.942Z,62.29
2024-05-09T12:23:33.464Z,61.64
2024-05-09T12:26:00.576Z,61.07
2024-05-09T12:28:30.198Z,59.43
2024-05-09T12:30:57.216Z,59.51
2024-05-09T12:33:26.877Z,60.72
2024-05-09T12:35:53.930Z,59.43
2024-05-09T12:38:26.077Z,59.00
2024-05-09T12:40:53.203Z,58.61
2024-05-09T12:43:23.015Z,58.49
2024-05-09T12:45:50.172Z,59.69
2024-05-09T12:48:19.845Z,59.85
2024-05-09T12:50:46.872Z,59.71
2024-05-09T12:53:16.606Z,59.35
2024-05-09T12:55:53.583Z,59.18
2024-05-09T12:58:26.821Z,59.52
2024-05-09T13:00:54.010Z,58.74
2024-05-09T13:03:23.797Z,59.43
2024-05-09T13:05:51.668Z,60.14
2024-05-09T13:08:21.669Z,60.37
2024-05-09T13:10:51.366Z,60.07
2024-05-09T13:13:21.116Z,59.31
2024-05-09T13:15:48.159Z,58.78
2024-05-09T13:18:17.758Z,58.89
2024-05-09T13:20:44.942Z,58.52
2024-05-09T13:23:14.502Z,58.63
2024-05-09T13:25:41.422Z,53.51
2024-05-09T13:28:13.759Z,54.17
2024-05-09T13:30:42.347Z,54.53
2024-05-09T13:33:13.370Z,54.87
2024-05-09T13:35:45.722Z,55.26
2024-05-09T13:38:19.846Z,54.79
2024-05-09T13:40:47.620Z,56.53
2024-05-09T13:43:22.020Z,54.74
2024-05-09T13:45:49.743Z,55.47
2024-05-09T13:48:19.891Z,55.58
2024-05-09T13:50:47.300Z,56.71
2024-05-09T13:53:16.941Z,55.79
2024-05-09T13:55:43.958Z,56.16
2024-05-09T13:58:13.572Z,55.59
2024-05-09T14:00:48.007Z,55.07
2024-05-09T14:03:20.613Z,54.81
2024-05-09T14:05:49.951Z,55.26
2024-05-09T14:08:22.348Z,55.09
2024-05-09T14:10:50.396Z,54.85
2024-05-09T14:13:20.345Z,54.43
2024-05-09T14:15:50.277Z,52.00
2024-05-09T14:18:20.553Z,54.84
2024-05-09T14:20:47.545Z,55.31
2024-05-09T14:23:17.525Z,55.41
2024-05-09T14:25:46.055Z,55.12
2024-05-09T14:28:16.859Z,54.74
2024-05-09T14:30:43.839Z,54.58
2024-05-09T14:33:23.676Z,55.14
2024-05-09T14:35:50.814Z,53.94
2024-05-09T14:38:20.303Z,53.86
2024-05-09T14:40:47.350Z,54.13
2024-05-09T14:43:19.457Z,54.32
2024-05-09T14:45:46.682Z,54.02
2024-05-09T14:48:19.988Z,54.53
2024-05-09T14:50:47.229Z,54.16
2024-05-09T14:53:17.530Z,55.65
2024-05-09T14:55:44.714Z,54.24
2024-05-09T14:58:14.818Z,53.77
2024-05-09T15:00:46.751Z,53.44
2024-05-09T15:03:22.891Z,53.28
2024-05-09T15:05:51.081Z,53.33
2024-05-09T15:08:21.911Z,52.86
2024-05-09T15:10:50.223Z,53.02
2024-05-09T15:13:20.825Z,52.27
2024-05-09T15:15:48.202Z,52.87
2024-05-09T15:18:18.565Z,53.43
2024-05-09T15:20:48.878Z,52.75
2024-05-09T15:23:18.937Z,52.76
2024-05-09T15:25:45.917Z,52.95
2024-05-09T15:28:15.784Z,53.32
2024-05-09T15:30:46.285Z,53.86
2024-05-09T15:33:16.825Z,55.21
2024-05-09T15:35:46.233Z,55.31
2024-05-09T15:38:18.934Z,55.67
2024-05-09T15:40:46.250Z,56.20
2024-05-09T15:43:16.063Z,56.46
2024-05-09T15:45:43.091Z,55.68
2024-05-09T15:48:12.988Z,54.92
2024-05-09T15:50:41.997Z,54.87
2024-05-09T15:53:13.218Z,54.43
2024-05-09T15:55:46.070Z,54.23
2024-05-09T15:58:14.234Z,54.10
2024-05-09T16:00:46.933Z,54.51
2024-05-09T16:03:15.870Z,54.21
2024-05-09T16:05:47.363Z,54.10
2024-05-09T16:08:15.720Z,54.55
2024-05-09T16:10:49.695Z,55.35
2024-05-09T16:13:17.736Z,55.54
2024-05-09T16:15:48.205Z,55.50
2024-05-09T16:18:15.722Z,54.74
2024-05-09T16:20:48.272Z,54.80
2024-05-09T16:23:17.059Z,54.97
2024-05-09T16:25:51.444Z,54.72
2024-05-09T16:28:18.908Z,54.46
2024-05-09T16:30:48.673Z,54.52
2024-05-09T16:33:19.173Z,54.72
2024-05-09T16:35:49.346Z,54.69
2024-05-09T16:38:16.414Z,55.31
2024-05-09T16:40:46.136Z,55.79
2024-05-09T16:43:15.953Z,55.73
2024-05-09T16:45:46.465Z,56.17
2024-05-09T16:48:14.198Z,55.73
2024-05-09T16:50:44.124Z,55.25
2024-05-09T16:53:11.229Z,54.76
2024-05-09T16:55:40.835Z,54.28
2024-05-09T16:58:08.353Z,53.91
2024-05-09T17:00:43.268Z,54.61
2024-05-09T17:03:13.867Z,54.96
2024-05-09T17:05:46.035Z,54.21
2024-05-09T17:08:15.740Z,53.60
2024-05-09T17:10:45.592Z,54.39
2024-05-09T17:13:15.396Z,55.13
2024-05-09T17:15:48.070Z,54.53
2024-05-09T17:18:15.702Z,54.40
2024-05-09T17:20:45.465Z,55.45
2024-05-09T17:23:13.988Z,55.64
2024-05-09T17:25:44.249Z,55.87
2024-05-09T17:28:11.893Z,55.78
2024-05-09T17:30:42.808Z,55.72
2024-05-09T17:33:13.405Z,55.68
2024-05-09T17:35:45.807Z,55.81
2024-05-09T17:38:12.924Z,55.73
2024-05-09T17:40:42.504Z,55.44
2024-05-09T17:43:10.721Z,55.25
2024-05-09T17:45:41.627Z,54.88
2024-05-09T17:48:10.380Z,55.40
2024-05-09T17:50:43.337Z,55.51
2024-05-09T17:53:11.160Z,55.74
2024-05-09T17:55:41.665Z,55.68
2024-05-09T17:58:09.634Z,55.55
2024-05-09T18:00:41.933Z,55.78
2024-05-09T18:03:11.734Z,55.67
2024-05-09T18:05:45.570Z,55.76
2024-05-09T18:08:13.355Z,55.91
2024-05-09T18:10:44.411Z,55.65
2024-05-09T18:13:16.077Z,55.99
2024-05-09T18:15:45.709Z,55.88
2024-05-09T18:18:13.262Z,56.01
2024-05-09T18:20:46.434Z,55.87
2024-05-09T18:23:16.166Z,55.59
2024-05-09T18:25:48.118Z,55.90
2024-05-09T18:28:15.924Z,55.46
2024-05-09T18:30:45.870Z,55.38
2024-05-09T18:33:13.435Z,56.01
2024-05-09T18:35:47.268Z,55.49
2024-05-09T18:38:14.353Z,55.08
2024-05-09T18:40:46.229Z,55.60
2024-05-09T18:43:15.512Z,55.33
2024-05-09T18:45:45.162Z,55.34
2024-05-09T18:48:13.442Z,55.34
2024-05-09T18:50:43.155Z,55.56
2024-05-09T18:53:16.021Z,55.32
2024-05-09T18:55:45.840Z,55.50
2024-05-09T18:58:12.867Z,55.67
2024-05-09T19:00:45.369Z,55.38
2024-05-09T19:03:14.935Z,55.46
2024-05-09T19:05:46.332Z,55.78
2024-05-09T19:08:16.351Z,55.50
2024-05-09T19:10:46.489Z,55.70
2024-05-09T19:13:14.571Z,56.08
2024-05-09T19:15:45.058Z,55.73
2024-05-09T19:18:13.214Z,55.78
2024-05-09T19:20:43.810Z,55.61
2024-05-09T19:23:11.657Z,55.94
2024-05-09T19:25:44.090Z,55.76
2024-05-09T19:28:11.135Z,55.93
2024-05-09T19:30:42.477Z,55.90
2024-05-09T19:33:11.880Z,56.06
2024-05-09T19:35:42.800Z,56.09
2024-05-09T19:38:09.906Z,55.84
2024-05-09T19:40:39.511Z,56.18
2024-05-09T19:43:09.404Z,56.18
2024-05-09T19:45:39.399Z,56.18
2024-05-09T19:48:07.438Z,56.05
2024-05-09T19:50:42.519Z,56.30
2024-05-09T19:53:12.146Z,56.57
2024-05-09T19:55:41.998Z,56.34
2024-05-09T19:58:12.708Z,56.52
2024-05-09T20:00:44.077Z,56.26
2024-05-09T20:03:12.975Z,56.26
2024-05-09T20:05:43.172Z,56.73
2024-05-09T20:08:10.356Z,56.66
2024-05-09T20:10:40.230Z,56.48
2024-05-09T20:13:08.205Z,56.69
2024-05-09T20:15:40.918Z,56.83
2024-05-09T20:18:08.221Z,56.67
2024-05-09T20:20:41.663Z,56.80
2024-05-09T20:23:11.183Z,56.79
2024-05-09T20:25:40.984Z,56.71
2024-05-09T20:28:08.087Z,56.74
2024-05-09T20:30:40.621Z,56.59
2024-05-09T20:33:08.998Z,56.84
2024-05-09T20:35:39.446Z,56.89
2024-05-09T20:38:06.547Z,57.06
2024-05-09T20:40:38.922Z,56.92
2024-05-09T20:43:08.485Z,56.92
2024-05-09T20:45:41.287Z,57.05
2024-05-09T20:48:09.841Z,56.95
2024-05-09T20:50:42.030Z,57.02
2024-05-09T20:53:11.466Z,57.22
2024-05-09T20:55:41.570Z,57.01
2024-05-09T20:58:09.424Z,57.08
2024-05-09T21:00:44.689Z,57.07
2024-05-09T21:03:14.248Z,57.19
2024-05-09T21:05:45.269Z,57.39
2024-05-09T21:08:12.438Z,57.36
2024-05-09T21:10:42.062Z,57.22
2024-05-09T21:13:09.125Z,57.28
2024-05-09T21:15:41.381Z,57.41
2024-05-09T21:18:08.840Z,57.26
2024-05-09T21:20:38.552Z,57.37
2024-05-09T21:23:05.733Z,57.39
2024-05-09T21:25:35.264Z,57.20
2024-05-09T21:28:02.375Z,57.18
2024-05-09T21:30:40.708Z,57.30
2024-05-09T21:33:14.079Z,57.44
2024-05-09T21:35:45.238Z,57.38
2024-05-09T21:38:14.032Z,57.63
2024-05-09T21:40:44.545Z,57.42
2024-05-09T21:43:12.029Z,57.41
2024-05-09T21:45:41.654Z,57.50
2024-05-09T21:48:12.582Z,57.39
2024-05-09T21:50:42.654Z,57.51
2024-05-09T21:53:10.261Z,57.55
2024-05-09T21:55:39.921Z,57.45
2024-05-09T21:58:06.963Z,57.62
2024-05-09T22:00:39.415Z,57.42
2024-05-09T22:03:08.313Z,57.65
2024-05-09T22:05:43.851Z,57.74
2024-05-09T22:08:11.149Z,57.93
2024-05-09T22:10:41.046Z,57.79
2024-05-09T22:13:08.218Z,57.70
2024-05-09T22:15:40.349Z,57.75
2024-05-09T22:18:09.485Z,57.85
2024-05-09T22:20:45.761Z,57.66
2024-05-09T22:23:14.912Z,57.84
2024-05-09T22:25:44.897Z,57.78
2024-05-09T22:28:14.771Z,57.87
2024-05-09T22:30:46.239Z,57.89
2024-05-09T22:33:15.038Z,57.84
2024-05-09T22:35:47.586Z,57.94
2024-05-09T22:38:14.604Z,57.87
2024-05-09T22:40:48.385Z,58.10
2024-05-09T22:43:18.468Z,57.96
2024-05-09T22:45:49.036Z,58.22
2024-05-09T22:48:16.387Z,58.15
2024-05-09T22:50:48.730Z,58.25
2024-05-09T22:53:15.877Z,58.19
2024-05-09T22:55:45.460Z,58.19
2024-05-09T22:58:12.574Z,58.25
2024-05-09T23:00:42.285Z,58.37
2024-05-09T23:03:09.276Z,58.57
2024-05-09T23:05:38.904Z,58.33
2024-05-09T23:08:08.704Z,58.30
2024-05-09T23:10:38.643Z,58.29
2024-05-09T23:13:06.187Z,58.66
2024-05-09T23:15:36.071Z,58.46
2024-05-09T23:18:03.084Z,58.47
2024-05-09T23:20:37.764Z,58.40
2024-05-09T23:23:10.875Z,58.49
2024-05-09T23:25:41.988Z,58.53
2024-05-09T23:28:09.380Z,58.79
2024-05-09T23:30:41.252Z,58.65
2024-05-09T23:33:10.451Z,58.86
2024-05-09T23:35:40.425Z,58.96
2024-05-09T23:38:10.065Z,58.82
2024-05-09T23:40:41.404Z,58.92
2024-05-09T23:43:10.040Z,58.86
2024-05-09T23:45:40.017Z,58.72
2024-05-09T23:48:08.061Z,58.87
2024-05-09T23:50:39.638Z,59.04
2024-05-09T23:53:10.959Z,59.04
2024-05-09T23:55:41.132Z,59.02
2024-05-09T23:58:08.201Z,59.05
